sensor_id;sensor_type;location;lat;lon;timestamp;temperature;humidity
68215;DHT22;55036;52.138;5.236;2022-09-09T00:01:42;17.20;79.10
68215;DHT22;55036;52.138;5.236;2022-09-09T00:07:19;17.30;78.60
68215;DHT22;55036;52.138;5.236;2022-09-09T00:15:21;17.30;78.40
68215;DHT22;55036;52.138;5.236;2022-09-09T00:23:29;17.20;78.80
68215;DHT22;55036;52.138;5.236;2022-09-09T00:26:09;17.20;78.70
68215;DHT22;55036;52.138;5.236;2022-09-09T00:28:52;17.10;78.90
68215;DHT22;55036;52.138;5.236;2022-09-09T00:31:26;17.20;78.90
68215;DHT22;55036;52.138;5.236;2022-09-09T00:33:56;17.10;78.80
68215;DHT22;55036;52.138;5.236;2022-09-09T00:36:26;17.10;78.90
68215;DHT22;55036;52.138;5.236;2022-09-09T00:38:57;17.10;78.90
68215;DHT22;55036;52.138;5.236;2022-09-09T00:47:12;17.00;79.10
68215;DHT22;55036;52.138;5.236;2022-09-09T00:52:49;17.00;79.20
68215;DHT22;55036;52.138;5.236;2022-09-09T00:57:59;16.90;79.00
68215;DHT22;55036;52.138;5.236;2022-09-09T01:00:29;17.00;78.70
68215;DHT22;55036;52.138;5.236;2022-09-09T01:03:02;16.90;79.00
68215;DHT22;55036;52.138;5.236;2022-09-09T01:11:30;16.80;79.40
68215;DHT22;55036;52.138;5.236;2022-09-09T01:22:18;16.70;79.20
68215;DHT22;55036;52.138;5.236;2022-09-09T01:27:34;16.70;79.70
68215;DHT22;55036;52.138;5.236;2022-09-09T01:30:08;16.60;79.40
68215;DHT22;55036;52.138;5.236;2022-09-09T01:35:19;16.60;79.50
68215;DHT22;55036;52.138;5.236;2022-09-09T01:37:49;16.70;79.20
68215;DHT22;55036;52.138;5.236;2022-09-09T01:40:16;16.70;79.30
68215;DHT22;55036;52.138;5.236;2022-09-09T01:42:43;16.60;79.20
68215;DHT22;55036;52.138;5.236;2022-09-09T01:45:10;16.60;78.70
68215;DHT22;55036;52.138;5.236;2022-09-09T01:47:36;16.60;78.90
68215;DHT22;55036;52.138;5.236;2022-09-09T01:50:04;16.60;78.80
68215;DHT22;55036;52.138;5.236;2022-09-09T01:52:32;16.60;79.00
68215;DHT22;55036;52.138;5.236;2022-09-09T01:55:02;16.60;78.80
68215;DHT22;55036;52.138;5.236;2022-09-09T01:57:50;16.60;78.70
68215;DHT22;55036;52.138;5.236;2022-09-09T02:00:21;16.60;78.60
68215;DHT22;55036;52.138;5.236;2022-09-09T02:03:17;16.50;78.70
68215;DHT22;55036;52.138;5.236;2022-09-09T02:06:00;16.50;78.70
68215;DHT22;55036;52.138;5.236;2022-09-09T02:08:45;16.50;78.60
68215;DHT22;55036;52.138;5.236;2022-09-09T02:11:19;16.50;78.90
68215;DHT22;55036;52.138;5.236;2022-09-09T02:13:48;16.50;78.80
68215;DHT22;55036;52.138;5.236;2022-09-09T02:16:24;16.40;79.00
68215;DHT22;55036;52.138;5.236;2022-09-09T02:18:56;16.40;78.90
68215;DHT22;55036;52.138;5.236;2022-09-09T02:21:24;16.40;79.00
68215;DHT22;55036;52.138;5.236;2022-09-09T02:23:56;16.40;79.00
68215;DHT22;55036;52.138;5.236;2022-09-09T02:26:25;16.40;79.00
68215;DHT22;55036;52.138;5.236;2022-09-09T02:28:55;16.30;79.40
68215;DHT22;55036;52.138;5.236;2022-09-09T02:31:25;16.30;79.20
68215;DHT22;55036;52.138;5.236;2022-09-09T02:33:55;16.30;79.10
68215;DHT22;55036;52.138;5.236;2022-09-09T02:36:24;16.30;79.50
68215;DHT22;55036;52.138;5.236;2022-09-09T02:38:52;16.10;79.90
68215;DHT22;55036;52.138;5.236;2022-09-09T02:41:24;16.10;80.20
68215;DHT22;55036;52.138;5.236;2022-09-09T02:43:52;16.10;80.00
68215;DHT22;55036;52.138;5.236;2022-09-09T02:49:12;16.10;80.20
68215;DHT22;55036;52.138;5.236;2022-09-09T02:56:53;16.10;80.10
68215;DHT22;55036;52.138;5.236;2022-09-09T02:59:25;16.10;80.20
68215;DHT22;55036;52.138;5.236;2022-09-09T03:01:52;16.10;80.20
68215;DHT22;55036;52.138;5.236;2022-09-09T03:04:20;16.00;80.40
68215;DHT22;55036;52.138;5.236;2022-09-09T03:06:46;16.00;80.50
68215;DHT22;55036;52.138;5.236;2022-09-09T03:09:13;16.00;80.50
68215;DHT22;55036;52.138;5.236;2022-09-09T03:11:40;16.00;80.10
68215;DHT22;55036;52.138;5.236;2022-09-09T03:14:07;16.10;80.30
68215;DHT22;55036;52.138;5.236;2022-09-09T03:16:34;16.00;80.40
68215;DHT22;55036;52.138;5.236;2022-09-09T03:19:01;16.00;80.30
68215;DHT22;55036;52.138;5.236;2022-09-09T03:21:28;16.20;80.10
68215;DHT22;55036;52.138;5.236;2022-09-09T03:23:55;16.10;80.30
68215;DHT22;55036;52.138;5.236;2022-09-09T03:26:22;16.00;80.40
68215;DHT22;55036;52.138;5.236;2022-09-09T03:28:49;16.00;80.60
68215;DHT22;55036;52.138;5.236;2022-09-09T03:31:18;16.00;80.30
68215;DHT22;55036;52.138;5.236;2022-09-09T03:33:46;16.00;80.30
68215;DHT22;55036;52.138;5.236;2022-09-09T03:36:12;15.90;80.50
68215;DHT22;55036;52.138;5.236;2022-09-09T03:38:39;15.90;80.70
68215;DHT22;55036;52.138;5.236;2022-09-09T03:41:06;15.80;81.00
68215;DHT22;55036;52.138;5.236;2022-09-09T03:43:34;15.80;80.90
68215;DHT22;55036;52.138;5.236;2022-09-09T03:46:01;15.80;81.30
68215;DHT22;55036;52.138;5.236;2022-09-09T03:48:27;15.70;81.40
68215;DHT22;55036;52.138;5.236;2022-09-09T03:50:55;15.70;81.60
68215;DHT22;55036;52.138;5.236;2022-09-09T03:53:24;15.70;81.20
68215;DHT22;55036;52.138;5.236;2022-09-09T03:55:53;15.80;81.00
68215;DHT22;55036;52.138;5.236;2022-09-09T03:58:23;15.80;80.90
68215;DHT22;55036;52.138;5.236;2022-09-09T04:00:58;15.80;81.00
68215;DHT22;55036;52.138;5.236;2022-09-09T04:03:26;15.70;81.30
68215;DHT22;55036;52.138;5.236;2022-09-09T04:05:56;15.70;81.30
68215;DHT22;55036;52.138;5.236;2022-09-09T04:08:23;15.50;82.00
68215;DHT22;55036;52.138;5.236;2022-09-09T04:10:53;15.60;81.60
68215;DHT22;55036;52.138;5.236;2022-09-09T04:13:24;15.70;81.30
68215;DHT22;55036;52.138;5.236;2022-09-09T04:15:56;15.60;81.50
68215;DHT22;55036;52.138;5.236;2022-09-09T04:18:23;15.60;81.70
68215;DHT22;55036;52.138;5.236;2022-09-09T04:20:51;15.60;81.80
68215;DHT22;55036;52.138;5.236;2022-09-09T04:23:18;15.60;81.90
68215;DHT22;55036;52.138;5.236;2022-09-09T04:25:48;15.60;82.50
68215;DHT22;55036;52.138;5.236;2022-09-09T04:28:16;15.50;82.40
68215;DHT22;55036;52.138;5.236;2022-09-09T04:30:44;15.40;83.20
68215;DHT22;55036;52.138;5.236;2022-09-09T04:33:12;15.50;83.10
68215;DHT22;55036;52.138;5.236;2022-09-09T04:35:39;15.60;82.60
68215;DHT22;55036;52.138;5.236;2022-09-09T04:38:09;15.60;82.50
68215;DHT22;55036;52.138;5.236;2022-09-09T04:40:36;15.70;82.30
68215;DHT22;55036;52.138;5.236;2022-09-09T04:43:03;15.60;82.60
68215;DHT22;55036;52.138;5.236;2022-09-09T04:45:38;15.60;82.50
68215;DHT22;55036;52.138;5.236;2022-09-09T04:48:06;15.60;82.80
68215;DHT22;55036;52.138;5.236;2022-09-09T04:50:33;15.60;82.40
68215;DHT22;55036;52.138;5.236;2022-09-09T04:53:01;15.60;82.50
68215;DHT22;55036;52.138;5.236;2022-09-09T04:55:28;15.60;82.60
68215;DHT22;55036;52.138;5.236;2022-09-09T04:57:55;15.40;83.90
68215;DHT22;55036;52.138;5.236;2022-09-09T05:00:21;15.40;83.80
68215;DHT22;55036;52.138;5.236;2022-09-09T05:02:48;15.40;83.30
68215;DHT22;55036;52.138;5.236;2022-09-09T05:05:15;15.50;83.20
68215;DHT22;55036;52.138;5.236;2022-09-09T05:07:42;15.60;83.00
68215;DHT22;55036;52.138;5.236;2022-09-09T05:10:09;15.60;82.80
68215;DHT22;55036;52.138;5.236;2022-09-09T05:12:36;15.60;82.70
68215;DHT22;55036;52.138;5.236;2022-09-09T05:15:03;15.50;83.60
68215;DHT22;55036;52.138;5.236;2022-09-09T05:17:31;15.50;83.10
68215;DHT22;55036;52.138;5.236;2022-09-09T05:19:57;15.60;82.90
68215;DHT22;55036;52.138;5.236;2022-09-09T05:22:25;15.60;82.90
68215;DHT22;55036;52.138;5.236;2022-09-09T05:24:52;15.70;82.80
68215;DHT22;55036;52.138;5.236;2022-09-09T05:27:18;15.70;83.00
68215;DHT22;55036;52.138;5.236;2022-09-09T05:29:46;15.60;83.40
68215;DHT22;55036;52.138;5.236;2022-09-09T05:32:13;15.70;83.00
68215;DHT22;55036;52.138;5.236;2022-09-09T05:34:41;15.60;83.30
68215;DHT22;55036;52.138;5.236;2022-09-09T05:37:08;15.60;83.30
68215;DHT22;55036;52.138;5.236;2022-09-09T05:39:34;15.60;83.30
68215;DHT22;55036;52.138;5.236;2022-09-09T05:42:05;15.70;83.20
68215;DHT22;55036;52.138;5.236;2022-09-09T05:44:31;15.70;83.00
68215;DHT22;55036;52.138;5.236;2022-09-09T05:46:58;15.60;84.00
68215;DHT22;55036;52.138;5.236;2022-09-09T05:49:25;15.60;83.60
68215;DHT22;55036;52.138;5.236;2022-09-09T05:51:52;15.70;83.60
68215;DHT22;55036;52.138;5.236;2022-09-09T05:54:19;15.70;83.50
68215;DHT22;55036;52.138;5.236;2022-09-09T05:56:46;15.80;83.40
68215;DHT22;55036;52.138;5.236;2022-09-09T05:59:17;15.80;83.40
68215;DHT22;55036;52.138;5.236;2022-09-09T06:01:44;15.90;83.20
68215;DHT22;55036;52.138;5.236;2022-09-09T06:04:11;16.00;83.10
68215;DHT22;55036;52.138;5.236;2022-09-09T06:06:38;16.00;83.00
68215;DHT22;55036;52.138;5.236;2022-09-09T06:09:08;15.90;83.60
68215;DHT22;55036;52.138;5.236;2022-09-09T06:11:38;16.00;83.30
68215;DHT22;55036;52.138;5.236;2022-09-09T06:14:05;16.00;83.70
68215;DHT22;55036;52.138;5.236;2022-09-09T06:16:33;16.10;83.80
68215;DHT22;55036;52.138;5.236;2022-09-09T06:19:01;16.20;83.90
68215;DHT22;55036;52.138;5.236;2022-09-09T06:21:35;16.20;83.10
68215;DHT22;55036;52.138;5.236;2022-09-09T06:24:04;16.20;83.30
68215;DHT22;55036;52.138;5.236;2022-09-09T06:26:32;16.30;83.20
68215;DHT22;55036;52.138;5.236;2022-09-09T06:29:00;16.40;82.70
68215;DHT22;55036;52.138;5.236;2022-09-09T06:31:29;16.40;83.40
68215;DHT22;55036;52.138;5.236;2022-09-09T06:34:01;16.50;83.50
68215;DHT22;55036;52.138;5.236;2022-09-09T06:36:30;16.60;83.40
68215;DHT22;55036;52.138;5.236;2022-09-09T06:38:58;16.60;83.20
68215;DHT22;55036;52.138;5.236;2022-09-09T06:41:27;16.70;83.30
68215;DHT22;55036;52.138;5.236;2022-09-09T06:43:54;16.80;83.30
68215;DHT22;55036;52.138;5.236;2022-09-09T06:46:26;17.00;82.40
68215;DHT22;55036;52.138;5.236;2022-09-09T06:48:57;17.10;82.20
68215;DHT22;55036;52.138;5.236;2022-09-09T06:51:31;17.30;82.50
68215;DHT22;55036;52.138;5.236;2022-09-09T06:54:00;17.50;81.70
68215;DHT22;55036;52.138;5.236;2022-09-09T06:56:31;17.50;80.50
68215;DHT22;55036;52.138;5.236;2022-09-09T06:59:00;17.50;81.30
68215;DHT22;55036;52.138;5.236;2022-09-09T07:01:33;17.60;80.70
68215;DHT22;55036;52.138;5.236;2022-09-09T07:04:01;17.80;80.90
68215;DHT22;55036;52.138;5.236;2022-09-09T07:06:30;17.90;80.60
68215;DHT22;55036;52.138;5.236;2022-09-09T07:08:59;18.00;80.20
68215;DHT22;55036;52.138;5.236;2022-09-09T07:11:31;18.10;79.70
68215;DHT22;55036;52.138;5.236;2022-09-09T07:13:59;18.20;79.50
68215;DHT22;55036;52.138;5.236;2022-09-09T07:16:26;18.40;79.50
68215;DHT22;55036;52.138;5.236;2022-09-09T07:18:58;18.50;78.10
68215;DHT22;55036;52.138;5.236;2022-09-09T07:21:26;18.70;79.00
68215;DHT22;55036;52.138;5.236;2022-09-09T07:23:54;19.00;78.60
68215;DHT22;55036;52.138;5.236;2022-09-09T07:26:24;19.10;78.40
68215;DHT22;55036;52.138;5.236;2022-09-09T07:28:51;19.20;76.40
68215;DHT22;55036;52.138;5.236;2022-09-09T07:31:21;19.10;74.90
68215;DHT22;55036;52.138;5.236;2022-09-09T07:33:48;19.00;76.00
68215;DHT22;55036;52.138;5.236;2022-09-09T07:36:18;19.00;74.80
68215;DHT22;55036;52.138;5.236;2022-09-09T07:38:50;18.80;74.40
68215;DHT22;55036;52.138;5.236;2022-09-09T07:41:21;18.70;75.20
68215;DHT22;55036;52.138;5.236;2022-09-09T07:43:49;18.60;75.50
68215;DHT22;55036;52.138;5.236;2022-09-09T07:46:18;18.50;74.80
68215;DHT22;55036;52.138;5.236;2022-09-09T07:48:50;18.40;75.30
68215;DHT22;55036;52.138;5.236;2022-09-09T07:51:21;18.40;75.90
68215;DHT22;55036;52.138;5.236;2022-09-09T07:53:52;18.40;75.60
68215;DHT22;55036;52.138;5.236;2022-09-09T07:56:20;18.50;76.30
68215;DHT22;55036;52.138;5.236;2022-09-09T07:58:51;18.60;76.00
68215;DHT22;55036;52.138;5.236;2022-09-09T08:01:27;18.60;75.60
68215;DHT22;55036;52.138;5.236;2022-09-09T08:04:00;18.60;75.60
68215;DHT22;55036;52.138;5.236;2022-09-09T08:06:29;18.50;75.70
68215;DHT22;55036;52.138;5.236;2022-09-09T08:08:56;18.50;76.00
68215;DHT22;55036;52.138;5.236;2022-09-09T08:11:25;18.40;75.70
68215;DHT22;55036;52.138;5.236;2022-09-09T08:13:52;18.30;75.90
68215;DHT22;55036;52.138;5.236;2022-09-09T08:16:29;18.30;75.90
68215;DHT22;55036;52.138;5.236;2022-09-09T08:18:57;18.30;75.90
68215;DHT22;55036;52.138;5.236;2022-09-09T08:21:26;18.20;76.20
68215;DHT22;55036;52.138;5.236;2022-09-09T08:23:56;18.30;76.30
68215;DHT22;55036;52.138;5.236;2022-09-09T08:26:32;18.20;75.80
68215;DHT22;55036;52.138;5.236;2022-09-09T08:29:00;18.20;76.10
68215;DHT22;55036;52.138;5.236;2022-09-09T08:31:39;18.30;76.20
68215;DHT22;55036;52.138;5.236;2022-09-09T08:34:07;18.20;75.70
68215;DHT22;55036;52.138;5.236;2022-09-09T08:36:44;18.20;75.60
68215;DHT22;55036;52.138;5.236;2022-09-09T08:39:13;18.10;75.80
68215;DHT22;55036;52.138;5.236;2022-09-09T08:50:27;18.30;75.80
68215;DHT22;55036;52.138;5.236;2022-09-09T08:56:12;18.40;75.00
68215;DHT22;55036;52.138;5.236;2022-09-09T08:58:51;18.30;75.20
68215;DHT22;55036;52.138;5.236;2022-09-09T09:04:26;18.20;75.60
68215;DHT22;55036;52.138;5.236;2022-09-09T09:07:10;18.20;75.20
68215;DHT22;55036;52.138;5.236;2022-09-09T09:09:53;18.20;75.60
68215;DHT22;55036;52.138;5.236;2022-09-09T09:12:30;18.20;75.70
68215;DHT22;55036;52.138;5.236;2022-09-09T09:14:59;18.10;75.80
68215;DHT22;55036;52.138;5.236;2022-09-09T09:17:28;18.20;75.80
68215;DHT22;55036;52.138;5.236;2022-09-09T09:19:57;18.30;75.70
68215;DHT22;55036;52.138;5.236;2022-09-09T09:22:32;18.30;76.40
68215;DHT22;55036;52.138;5.236;2022-09-09T09:28:12;18.30;75.00
68215;DHT22;55036;52.138;5.236;2022-09-09T09:30:50;18.30;75.10
68215;DHT22;55036;52.138;5.236;2022-09-09T09:33:38;18.20;75.30
68215;DHT22;55036;52.138;5.236;2022-09-09T09:36:13;18.20;75.30
68215;DHT22;55036;52.138;5.236;2022-09-09T09:38:54;18.30;75.20
68215;DHT22;55036;52.138;5.236;2022-09-09T09:41:42;18.30;75.20
68215;DHT22;55036;52.138;5.236;2022-09-09T09:44:30;18.30;75.50
68215;DHT22;55036;52.138;5.236;2022-09-09T09:49:37;18.30;75.90
68215;DHT22;55036;52.138;5.236;2022-09-09T09:52:05;18.20;76.70
68215;DHT22;55036;52.138;5.236;2022-09-09T09:54:38;18.10;78.90
68215;DHT22;55036;52.138;5.236;2022-09-09T09:57:13;18.20;78.20
68215;DHT22;55036;52.138;5.236;2022-09-09T09:59:41;18.10;78.90
68215;DHT22;55036;52.138;5.236;2022-09-09T10:02:39;18.10;78.60
68215;DHT22;55036;52.138;5.236;2022-09-09T10:07:39;18.10;79.50
68215;DHT22;55036;52.138;5.236;2022-09-09T10:10:13;18.00;79.90
68215;DHT22;55036;52.138;5.236;2022-09-09T10:18:47;18.30;79.30
68215;DHT22;55036;52.138;5.236;2022-09-09T10:24:13;18.40;79.20
68215;DHT22;55036;52.138;5.236;2022-09-09T10:38:14;18.20;80.00
68215;DHT22;55036;52.138;5.236;2022-09-09T10:52:13;19.00;79.50
68215;DHT22;55036;52.138;5.236;2022-09-09T10:57:39;18.90;79.00
68215;DHT22;55036;52.138;5.236;2022-09-09T11:02:42;19.00;79.40
68215;DHT22;55036;52.138;5.236;2022-09-09T11:05:17;19.00;79.30
68215;DHT22;55036;52.138;5.236;2022-09-09T11:08:00;19.10;80.20
68215;DHT22;55036;52.138;5.236;2022-09-09T11:10:40;19.10;78.50
68215;DHT22;55036;52.138;5.236;2022-09-09T11:13:14;19.10;78.90
68215;DHT22;55036;52.138;5.236;2022-09-09T11:15:47;19.10;78.50
68215;DHT22;55036;52.138;5.236;2022-09-09T11:18:20;19.10;78.40
68215;DHT22;55036;52.138;5.236;2022-09-09T11:20:52;19.20;77.70
68215;DHT22;55036;52.138;5.236;2022-09-09T11:23:44;19.20;77.60
68215;DHT22;55036;52.138;5.236;2022-09-09T11:26:18;19.20;77.60
68215;DHT22;55036;52.138;5.236;2022-09-09T11:34:17;19.10;77.10
68215;DHT22;55036;52.138;5.236;2022-09-09T11:37:04;19.10;78.00
68215;DHT22;55036;52.138;5.236;2022-09-09T11:39:44;19.20;77.60
68215;DHT22;55036;52.138;5.236;2022-09-09T11:44:41;19.10;77.60
68215;DHT22;55036;52.138;5.236;2022-09-09T11:47:29;19.20;77.40
68215;DHT22;55036;52.138;5.236;2022-09-09T11:50:22;19.20;76.50
68215;DHT22;55036;52.138;5.236;2022-09-09T11:55:40;19.00;77.40
68215;DHT22;55036;52.138;5.236;2022-09-09T12:00:46;18.90;77.90
68215;DHT22;55036;52.138;5.236;2022-09-09T12:06:17;18.90;77.60
68215;DHT22;55036;52.138;5.236;2022-09-09T12:08:50;19.10;77.90
68215;DHT22;55036;52.138;5.236;2022-09-09T12:11:29;19.00;77.40
68215;DHT22;55036;52.138;5.236;2022-09-09T12:13:58;19.10;77.60
68215;DHT22;55036;52.138;5.236;2022-09-09T12:16:35;19.10;77.60
68215;DHT22;55036;52.138;5.236;2022-09-09T12:19:21;19.20;77.70
68215;DHT22;55036;52.138;5.236;2022-09-09T12:22:07;19.10;77.30
68215;DHT22;55036;52.138;5.236;2022-09-09T12:27:23;19.00;78.00
68215;DHT22;55036;52.138;5.236;2022-09-09T12:30:04;19.00;78.40
68215;DHT22;55036;52.138;5.236;2022-09-09T12:32:34;18.90;78.70
68215;DHT22;55036;52.138;5.236;2022-09-09T12:35:17;19.00;78.70
68215;DHT22;55036;52.138;5.236;2022-09-09T12:37:52;19.20;78.30
68215;DHT22;55036;52.138;5.236;2022-09-09T12:40:24;19.30;77.90
68215;DHT22;55036;52.138;5.236;2022-09-09T12:42:51;19.30;77.90
68215;DHT22;55036;52.138;5.236;2022-09-09T12:45:20;19.40;77.50
68215;DHT22;55036;52.138;5.236;2022-09-09T12:47:55;19.60;77.50
68215;DHT22;55036;52.138;5.236;2022-09-09T12:50:26;19.80;76.20
68215;DHT22;55036;52.138;5.236;2022-09-09T12:53:03;19.80;76.40
68215;DHT22;55036;52.138;5.236;2022-09-09T12:55:36;20.00;75.70
68215;DHT22;55036;52.138;5.236;2022-09-09T12:58:04;20.20;75.30
68215;DHT22;55036;52.138;5.236;2022-09-09T13:00:33;20.40;74.70
68215;DHT22;55036;52.138;5.236;2022-09-09T13:03:16;20.30;74.40
68215;DHT22;55036;52.138;5.236;2022-09-09T13:05:43;20.30;73.10
68215;DHT22;55036;52.138;5.236;2022-09-09T13:08:11;20.30;73.80
68215;DHT22;55036;52.138;5.236;2022-09-09T13:10:47;20.20;73.50
68215;DHT22;55036;52.138;5.236;2022-09-09T13:13:23;20.10;73.20
68215;DHT22;55036;52.138;5.236;2022-09-09T13:15:53;19.80;73.80
68215;DHT22;55036;52.138;5.236;2022-09-09T13:18:23;19.70;74.10
68215;DHT22;55036;52.138;5.236;2022-09-09T13:20:51;19.60;74.30
68215;DHT22;55036;52.138;5.236;2022-09-09T13:23:19;19.60;74.40
68215;DHT22;55036;52.138;5.236;2022-09-09T13:25:58;19.60;74.30
68215;DHT22;55036;52.138;5.236;2022-09-09T13:28:27;19.60;74.60
68215;DHT22;55036;52.138;5.236;2022-09-09T13:31:02;19.50;74.90
68215;DHT22;55036;52.138;5.236;2022-09-09T13:33:34;19.50;75.70
68215;DHT22;55036;52.138;5.236;2022-09-09T13:36:12;19.60;75.60
68215;DHT22;55036;52.138;5.236;2022-09-09T13:38:56;19.60;75.50
68215;DHT22;55036;52.138;5.236;2022-09-09T13:41:36;19.70;75.70
68215;DHT22;55036;52.138;5.236;2022-09-09T13:44:20;19.70;75.70
68215;DHT22;55036;52.138;5.236;2022-09-09T13:47:00;19.80;75.90
68215;DHT22;55036;52.138;5.236;2022-09-09T13:49:29;19.70;76.20
68215;DHT22;55036;52.138;5.236;2022-09-09T13:52:11;19.80;76.20
68215;DHT22;55036;52.138;5.236;2022-09-09T13:54:41;19.70;76.00
68215;DHT22;55036;52.138;5.236;2022-09-09T13:57:16;19.70;76.80
68215;DHT22;55036;52.138;5.236;2022-09-09T13:59:48;19.70;76.40
68215;DHT22;55036;52.138;5.236;2022-09-09T14:02:32;19.70;76.00
68215;DHT22;55036;52.138;5.236;2022-09-09T14:04:59;19.60;76.00
68215;DHT22;55036;52.138;5.236;2022-09-09T14:07:26;19.70;76.70
68215;DHT22;55036;52.138;5.236;2022-09-09T14:09:53;19.60;76.40
68215;DHT22;55036;52.138;5.236;2022-09-09T14:12:20;19.60;76.40
68215;DHT22;55036;52.138;5.236;2022-09-09T14:14:46;19.50;76.90
68215;DHT22;55036;52.138;5.236;2022-09-09T14:17:13;19.40;77.20
68215;DHT22;55036;52.138;5.236;2022-09-09T14:19:40;19.50;77.20
68215;DHT22;55036;52.138;5.236;2022-09-09T14:22:07;19.50;77.80
68215;DHT22;55036;52.138;5.236;2022-09-09T14:24:34;19.40;78.30
68215;DHT22;55036;52.138;5.236;2022-09-09T14:27:00;19.40;77.80
68215;DHT22;55036;52.138;5.236;2022-09-09T14:29:27;19.40;78.70
68215;DHT22;55036;52.138;5.236;2022-09-09T14:31:54;19.30;78.80
68215;DHT22;55036;52.138;5.236;2022-09-09T14:34:21;19.20;78.80
68215;DHT22;55036;52.138;5.236;2022-09-09T14:36:47;19.30;78.60
68215;DHT22;55036;52.138;5.236;2022-09-09T14:39:14;19.30;79.20
68215;DHT22;55036;52.138;5.236;2022-09-09T14:41:41;19.20;79.50
68215;DHT22;55036;52.138;5.236;2022-09-09T14:44:08;19.30;80.60
68215;DHT22;55036;52.138;5.236;2022-09-09T14:46:35;19.40;80.40
68215;DHT22;55036;52.138;5.236;2022-09-09T14:49:01;19.50;80.80
68215;DHT22;55036;52.138;5.236;2022-09-09T14:51:28;19.80;80.70
68215;DHT22;55036;52.138;5.236;2022-09-09T14:53:56;19.90;80.30
68215;DHT22;55036;52.138;5.236;2022-09-09T14:56:26;20.00;80.50
68215;DHT22;55036;52.138;5.236;2022-09-09T14:58:54;20.20;80.30
68215;DHT22;55036;52.138;5.236;2022-09-09T15:01:22;20.30;79.20
68215;DHT22;55036;52.138;5.236;2022-09-09T15:03:51;20.30;79.50
68215;DHT22;55036;52.138;5.236;2022-09-09T15:06:19;20.40;78.50
68215;DHT22;55036;52.138;5.236;2022-09-09T15:08:47;20.30;78.60
68215;DHT22;55036;52.138;5.236;2022-09-09T15:11:14;20.10;78.70
68215;DHT22;55036;52.138;5.236;2022-09-09T15:13:42;20.00;77.80
68215;DHT22;55036;52.138;5.236;2022-09-09T15:16:17;19.90;78.10
68215;DHT22;55036;52.138;5.236;2022-09-09T15:18:45;19.90;78.40
68215;DHT22;55036;52.138;5.236;2022-09-09T15:21:15;19.80;78.30
68215;DHT22;55036;52.138;5.236;2022-09-09T15:23:42;19.70;77.30
68215;DHT22;55036;52.138;5.236;2022-09-09T15:26:10;19.60;77.70
68215;DHT22;55036;52.138;5.236;2022-09-09T15:28:37;19.60;77.90
68215;DHT22;55036;52.138;5.236;2022-09-09T15:31:16;19.60;77.80
68215;DHT22;55036;52.138;5.236;2022-09-09T15:33:57;19.60;77.80
68215;DHT22;55036;52.138;5.236;2022-09-09T15:36:38;19.60;78.10
68215;DHT22;55036;52.138;5.236;2022-09-09T15:39:11;19.50;77.80
68215;DHT22;55036;52.138;5.236;2022-09-09T15:41:43;19.50;77.90
68215;DHT22;55036;52.138;5.236;2022-09-09T15:44:11;19.60;77.60
68215;DHT22;55036;52.138;5.236;2022-09-09T15:46:50;19.50;78.70
68215;DHT22;55036;52.138;5.236;2022-09-09T15:49:23;19.50;77.60
68215;DHT22;55036;52.138;5.236;2022-09-09T15:51:57;19.60;77.30
68215;DHT22;55036;52.138;5.236;2022-09-09T15:54:25;19.60;77.20
68215;DHT22;55036;52.138;5.236;2022-09-09T15:56:55;19.70;77.40
68215;DHT22;55036;52.138;5.236;2022-09-09T15:59:26;19.80;77.00
68215;DHT22;55036;52.138;5.236;2022-09-09T16:01:58;19.80;76.70
68215;DHT22;55036;52.138;5.236;2022-09-09T16:04:27;19.80;75.50
68215;DHT22;55036;52.138;5.236;2022-09-09T16:07:03;19.70;76.70
68215;DHT22;55036;52.138;5.236;2022-09-09T16:09:31;19.80;76.80
68215;DHT22;55036;52.138;5.236;2022-09-09T16:12:02;19.80;75.50
68215;DHT22;55036;52.138;5.236;2022-09-09T16:14:33;19.80;76.30
68215;DHT22;55036;52.138;5.236;2022-09-09T16:17:03;19.80;75.80
68215;DHT22;55036;52.138;5.236;2022-09-09T16:19:30;19.80;75.70
68215;DHT22;55036;52.138;5.236;2022-09-09T16:21:57;19.80;75.80
68215;DHT22;55036;52.138;5.236;2022-09-09T16:24:24;19.80;75.60
68215;DHT22;55036;52.138;5.236;2022-09-09T16:26:52;19.60;76.10
68215;DHT22;55036;52.138;5.236;2022-09-09T16:29:21;19.50;75.60
68215;DHT22;55036;52.138;5.236;2022-09-09T16:31:49;19.50;75.90
68215;DHT22;55036;52.138;5.236;2022-09-09T16:34:17;19.40;75.30
68215;DHT22;55036;52.138;5.236;2022-09-09T16:36:45;19.30;76.60
68215;DHT22;55036;52.138;5.236;2022-09-09T16:39:14;19.40;75.80
68215;DHT22;55036;52.138;5.236;2022-09-09T16:41:42;19.40;75.80
68215;DHT22;55036;52.138;5.236;2022-09-09T16:44:11;19.40;75.80
68215;DHT22;55036;52.138;5.236;2022-09-09T16:46:40;19.40;75.80
68215;DHT22;55036;52.138;5.236;2022-09-09T16:49:10;19.50;75.60
68215;DHT22;55036;52.138;5.236;2022-09-09T16:51:42;19.50;75.70
68215;DHT22;55036;52.138;5.236;2022-09-09T16:54:10;19.50;75.80
68215;DHT22;55036;52.138;5.236;2022-09-09T16:56:40;19.50;75.80
68215;DHT22;55036;52.138;5.236;2022-09-09T16:59:12;19.50;75.70
68215;DHT22;55036;52.138;5.236;2022-09-09T17:01:41;19.60;75.40
68215;DHT22;55036;52.138;5.236;2022-09-09T17:04:15;19.50;75.50
68215;DHT22;55036;52.138;5.236;2022-09-09T17:06:48;19.50;75.60
68215;DHT22;55036;52.138;5.236;2022-09-09T17:09:19;19.40;75.50
68215;DHT22;55036;52.138;5.236;2022-09-09T17:11:46;19.40;75.80
68215;DHT22;55036;52.138;5.236;2022-09-09T17:14:16;19.30;76.00
68215;DHT22;55036;52.138;5.236;2022-09-09T17:16:43;19.30;76.10
68215;DHT22;55036;52.138;5.236;2022-09-09T17:19:10;19.20;76.40
68215;DHT22;55036;52.138;5.236;2022-09-09T17:21:37;19.20;76.40
68215;DHT22;55036;52.138;5.236;2022-09-09T17:24:25;19.10;76.80
68215;DHT22;55036;52.138;5.236;2022-09-09T17:26:52;19.20;76.50
68215;DHT22;55036;52.138;5.236;2022-09-09T17:29:21;19.20;76.80
68215;DHT22;55036;52.138;5.236;2022-09-09T17:31:48;19.10;77.00
68215;DHT22;55036;52.138;5.236;2022-09-09T17:34:14;19.10;76.90
68215;DHT22;55036;52.138;5.236;2022-09-09T17:36:41;19.10;76.90
68215;DHT22;55036;52.138;5.236;2022-09-09T17:39:08;19.20;76.70
68215;DHT22;55036;52.138;5.236;2022-09-09T17:41:37;19.20;76.90
68215;DHT22;55036;52.138;5.236;2022-09-09T17:44:05;19.20;76.80
68215;DHT22;55036;52.138;5.236;2022-09-09T17:46:40;19.20;76.70
68215;DHT22;55036;52.138;5.236;2022-09-09T17:49:10;19.20;76.80
68215;DHT22;55036;52.138;5.236;2022-09-09T17:51:38;19.30;76.90
68215;DHT22;55036;52.138;5.236;2022-09-09T17:54:11;19.30;77.00
68215;DHT22;55036;52.138;5.236;2022-09-09T17:56:39;19.30;76.90
68215;DHT22;55036;52.138;5.236;2022-09-09T17:59:08;19.30;77.10
68215;DHT22;55036;52.138;5.236;2022-09-09T18:01:38;19.30;77.00
68215;DHT22;55036;52.138;5.236;2022-09-09T18:04:07;19.30;77.00
68215;DHT22;55036;52.138;5.236;2022-09-09T18:06:40;19.30;77.30